createdAt,value
2019-02-11T00:00:56.631Z,99665.79
2019-02-11T00:03:25.498Z,99664.03
2019-02-11T00:05:54.229Z,99657.09
2019-02-11T00:08:22.946Z,99650.02
2019-02-11T00:10:51.762Z,99641.16
2019-02-11T00:13:20.492Z,99638.25
2019-02-11T00:15:49.224Z,99637.05
2019-02-11T00:18:17.974Z,99638.13
2019-02-11T00:20:46.709Z,99639.30
2019-02-11T00:23:15.422Z,99641.36
2019-02-11T00:25:44.195Z,99622.26
2019-02-11T00:28:12.925Z,99615.77
2019-02-11T00:30:41.646Z,99614.29
2019-02-11T00:33:10.544Z,99627.89
2019-02-11T00:35:39.308Z,99625.16
2019-02-11T00:38:08.034Z,99624.56
2019-02-11T00:40:36.902Z,99642.81
2019-02-11T00:43:05.628Z,99638.80
2019-02-11T00:45:34.344Z,99631.72
2019-02-11T00:48:04.335Z,99631.08
2019-02-11T00:50:33.060Z,99643.22
2019-02-11T00:53:01.786Z,99637.71
2019-02-11T00:55:30.565Z,99636.09
2019-02-11T00:57:59.293Z,99624.81
2019-02-11T01:00:28.017Z,99615.42
2019-02-11T01:02:57.025Z,99608.72
2019-02-11T01:05:25.745Z,99615.97
2019-02-11T01:07:54.475Z,99616.59
2019-02-11T01:10:23.238Z,99623.31
2019-02-11T01:12:51.968Z,99623.77
2019-02-11T01:15:20.696Z,99620.78
2019-02-11T01:17:49.888Z,99614.80
2019-02-11T01:20:18.616Z,99619.18
2019-02-11T01:22:47.340Z,99612.59
2019-02-11T01:25:16.556Z,99625.48
2019-02-11T01:27:45.292Z,99618.66
2019-02-11T01:30:14.019Z,99617.22
2019-02-11T01:32:43.227Z,99610.28
2019-02-11T01:35:11.954Z,99598.39
2019-02-11T01:37:40.729Z,99596.91
2019-02-11T01:40:11.046Z,99604.23
2019-02-11T01:42:39.780Z,99618.70
2019-02-11T01:45:11.217Z,99617.27
2019-02-11T01:47:40.349Z,99608.19
2019-02-11T01:50:11.486Z,99609.92
2019-02-11T01:52:40.214Z,99614.58
2019-02-11T01:55:09.078Z,99619.98
2019-02-11T01:57:37.846Z,99612.61
2019-02-11T02:00:14.676Z,99611.30
2019-02-11T02:02:43.402Z,99590.92
2019-02-11T02:05:12.119Z,99583.08
2019-02-11T02:07:40.994Z,99595.91
2019-02-11T02:10:12.688Z,99591.11
2019-02-11T02:12:41.409Z,99587.45
2019-02-11T02:15:13.105Z,99591.26
2019-02-11T02:17:41.828Z,99593.69
2019-02-11T02:20:13.329Z,99581.01
2019-02-11T02:22:42.324Z,99560.80
2019-02-11T02:25:12.149Z,99546.52
2019-02-11T02:27:41.572Z,99543.83
2019-02-11T02:30:14.807Z,99544.68
2019-02-11T02:32:43.515Z,99555.11
2019-02-11T02:35:12.241Z,99560.66
2019-02-11T02:37:41.123Z,99559.50
2019-02-11T02:40:10.610Z,99562.23
2019-02-11T02:42:39.340Z,99565.21
2019-02-11T02:45:09.699Z,99567.25
2019-02-11T02:47:38.438Z,99557.00
2019-02-11T02:50:09.176Z,99563.68
2019-02-11T02:52:38.053Z,99565.27
2019-02-11T02:55:08.084Z,99562.75
2019-02-11T02:57:36.808Z,99557.55
2019-02-11T03:00:11.410Z,99558.70
2019-02-11T03:02:40.145Z,99559.29
2019-02-11T03:05:09.672Z,99553.69
2019-02-11T03:07:38.977Z,99559.93
2019-02-11T03:10:11.709Z,99554.83
2019-02-11T03:12:40.432Z,99545.13
2019-02-11T03:15:11.024Z,99536.16
2019-02-11T03:17:39.749Z,99530.20
2019-02-11T03:20:09.474Z,99534.66
2019-02-11T03:22:38.345Z,99532.26
2019-02-11T03:25:08.485Z,99534.84
2019-02-11T03:27:37.194Z,99537.64
2019-02-11T03:30:09.152Z,99535.93
2019-02-11T03:32:37.883Z,99537.92
2019-02-11T03:35:06.880Z,99553.84
2019-02-11T03:37:35.844Z,99550.30
2019-02-11T03:40:07.272Z,99549.66
2019-02-11T03:42:35.993Z,99544.30
2019-02-11T03:45:10.612Z,99546.24
2019-02-11T03:47:39.329Z,99540.62
2019-02-11T03:50:10.329Z,99539.97
2019-02-11T03:52:39.293Z,99547.03
2019-02-11T03:55:08.612Z,99549.20
2019-02-11T03:57:37.343Z,99552.63
2019-02-11T04:00:09.271Z,99530.22
2019-02-11T04:02:37.996Z,99530.50
2019-02-11T04:05:07.839Z,99546.41
2019-02-11T04:07:37.014Z,99547.75
2019-02-11T04:10:08.761Z,99546.19
2019-02-11T04:12:37.480Z,99534.42
2019-02-11T04:15:08.398Z,99519.67
2019-02-11T04:17:37.124Z,99521.45
2019-02-11T04:20:07.550Z,99523.36
2019-02-11T04:22:36.325Z,99532.20
2019-02-11T04:25:06.460Z,99528.33
2019-02-11T04:27:35.350Z,99527.75
2019-02-11T04:30:04.592Z,99528.58
2019-02-11T04:32:33.330Z,99521.65
2019-02-11T04:35:02.068Z,99518.98
2019-02-11T04:37:31.184Z,99507.50
2019-02-11T04:39:59.911Z,99513.25
2019-02-11T04:42:28.635Z,99505.83
2019-02-11T04:44:57.862Z,99489.30
2019-02-11T04:47:26.585Z,99493.80
2019-02-11T04:49:55.305Z,99490.59
2019-02-11T04:52:24.082Z,99483.26
2019-02-11T04:54:52.815Z,99482.37
2019-02-11T04:57:21.555Z,99471.48
2019-02-11T04:59:50.449Z,99467.30
2019-02-11T05:02:19.170Z,99463.91
2019-02-11T05:04:47.897Z,99461.05
2019-02-11T05:07:16.693Z,99452.29
2019-02-11T05:09:45.416Z,99456.30
2019-02-11T05:12:14.186Z,99459.17
2019-02-11T05:14:44.265Z,99474.29
2019-02-11T05:17:13.183Z,99497.15
2019-02-11T05:19:41.906Z,99510.31
2019-02-11T05:22:10.793Z,99518.06
2019-02-11T05:24:39.525Z,99506.17
2019-02-11T05:27:08.267Z,99504.74
2019-02-11T05:29:37.016Z,99509.44
2019-02-11T05:32:05.752Z,99512.95
2019-02-11T05:34:34.485Z,99507.95
2019-02-11T05:37:03.265Z,99506.03
2019-02-11T05:39:31.999Z,99497.02
2019-02-11T05:42:00.724Z,99488.10
2019-02-11T05:44:29.489Z,99467.07
2019-02-11T05:46:58.269Z,99452.06
2019-02-11T05:49:26.991Z,99456.26
2019-02-11T05:52:01.614Z,99455.77
2019-02-11T05:54:30.339Z,99459.35
2019-02-11T05:56:59.067Z,99464.41
2019-02-11T05:59:28.060Z,99454.92
2019-02-11T06:01:56.772Z,99456.27
2019-02-11T06:04:25.487Z,99450.32
2019-02-11T06:06:54.291Z,99445.45
2019-02-11T06:09:23.468Z,99457.19
2019-02-11T06:11:52.186Z,99459.31
2019-02-11T06:14:23.207Z,99474.38
2019-02-11T06:16:51.618Z,99470.28
2019-02-11T06:19:20.378Z,99486.86
2019-02-11T06:21:49.247Z,99481.02
2019-02-11T06:24:19.445Z,99487.02
2019-02-11T06:26:48.180Z,99494.20
2019-02-11T06:29:19.009Z,99483.16
2019-02-11T06:31:47.529Z,99481.79
2019-02-11T06:34:16.234Z,99476.61
2019-02-11T06:36:45.009Z,99480.34
2019-02-11T06:39:13.740Z,99482.36
2019-02-11T06:41:42.459Z,99487.95
2019-02-11T06:44:11.357Z,99488.59
2019-02-11T06:46:40.080Z,99496.72
2019-02-11T06:49:08.850Z,99512.63
2019-02-11T06:51:37.754Z,99520.76
2019-02-11T06:54:06.485Z,99519.06
2019-02-11T06:56:35.210Z,99499.16
2019-02-11T06:59:04.414Z,99498.77
2019-02-11T07:01:33.139Z,99506.34
2019-02-11T07:04:01.852Z,99501.69
2019-02-11T07:06:30.664Z,99503.03
2019-02-11T07:08:59.390Z,99505.43
2019-02-11T07:11:28.120Z,99502.05
2019-02-11T07:13:56.975Z,99489.23
2019-02-11T07:16:25.701Z,99482.08
2019-02-11T07:18:54.422Z,99481.03
2019-02-11T07:21:23.193Z,99481.45
2019-02-11T07:23:51.924Z,99477.25
2019-02-11T07:26:20.637Z,99470.05
2019-02-11T07:28:49.965Z,99472.69
2019-02-11T07:31:18.698Z,99471.39
2019-02-11T07:33:47.417Z,99477.08
2019-02-11T07:36:17.989Z,99477.28
2019-02-11T07:38:46.843Z,99474.81
2019-02-11T07:41:15.561Z,99468.12
2019-02-11T07:43:48.670Z,99466.30
2019-02-11T07:46:18.950Z,99472.59
2019-02-11T07:48:47.675Z,99479.88
2019-02-11T07:51:16.688Z,99480.69
2019-02-11T07:53:45.411Z,99482.19
2019-02-11T07:56:14.129Z,99469.73
2019-02-11T07:58:42.920Z,99479.08
2019-02-11T08:01:11.653Z,99473.06
2019-02-11T08:03:40.373Z,99464.56
2019-02-11T08:06:09.261Z,99457.50
2019-02-11T08:08:37.952Z,99455.41
2019-02-11T08:11:06.682Z,99458.50
2019-02-11T08:13:35.645Z,99449.01
2019-02-11T08:16:04.469Z,99452.34
2019-02-11T08:18:33.191Z,99441.14
2019-02-11T08:21:01.958Z,99433.55
2019-02-11T08:23:30.680Z,99431.17
2019-02-11T08:25:59.406Z,99417.52
2019-02-11T08:28:28.656Z,99413.66
2019-02-11T08:30:57.396Z,99423.17
2019-02-11T08:33:26.224Z,99418.00
2019-02-11T08:35:55.007Z,99419.20
2019-02-11T08:38:23.730Z,99410.85
2019-02-11T08:40:52.456Z,99397.05
2019-02-11T08:43:21.332Z,99401.64
2019-02-11T08:45:50.050Z,99411.83
2019-02-11T08:48:18.767Z,99410.86
2019-02-11T08:50:47.583Z,99402.83
2019-02-11T08:53:16.320Z,99402.38
2019-02-11T08:55:45.046Z,99401.03
2019-02-11T08:58:13.903Z,99399.33
2019-02-11T09:00:42.703Z,99394.27
2019-02-11T09:03:12.422Z,99400.07
2019-02-11T09:05:41.279Z,99409.05
2019-02-11T09:08:10.412Z,99409.89
2019-02-11T09:10:39.141Z,99403.12
2019-02-11T09:13:08.003Z,99393.31
2019-02-11T09:15:36.726Z,99389.61
2019-02-11T09:18:05.570Z,99373.93
2019-02-11T09:20:34.361Z,99356.05
2019-02-11T09:23:03.071Z,99355.39
2019-02-11T09:25:31.798Z,99358.59
2019-02-11T09:28:00.558Z,99358.20
2019-02-11T09:30:29.278Z,99361.16
2019-02-11T09:32:57.995Z,99347.58
2019-02-11T09:35:26.763Z,99335.67
2019-02-11T09:37:55.484Z,99338.80
2019-02-11T09:40:24.218Z,99331.21
2019-02-11T09:42:53.437Z,99329.59
2019-02-11T09:45:24.841Z,99329.86
2019-02-11T09:47:53.570Z,99324.16
2019-02-11T09:50:25.871Z,99316.73
2019-02-11T09:52:54.601Z,99318.20
2019-02-11T09:55:29.192Z,99303.16
2019-02-11T09:57:58.053Z,99310.22
2019-02-11T10:00:27.492Z,99310.62
2019-02-11T10:02:56.213Z,99291.73
2019-02-11T10:05:25.095Z,99284.40
2019-02-11T10:07:53.820Z,99281.34
2019-02-11T10:10:22.553Z,99276.28
2019-02-11T10:12:51.442Z,99265.73
2019-02-11T10:15:20.177Z,99261.27
2019-02-11T10:17:48.986Z,99257.35
2019-02-11T10:20:17.812Z,99257.70
2019-02-11T10:22:46.537Z,99253.61
2019-02-11T10:25:24.079Z,99248.88
2019-02-11T10:27:54.490Z,99232.56
2019-02-11T10:30:23.214Z,99223.88
2019-02-11T10:32:52.097Z,99223.83
2019-02-11T10:35:21.020Z,99219.34
2019-02-11T10:37:49.844Z,99217.55
2019-02-11T10:40:18.719Z,99218.45
2019-02-11T10:42:47.454Z,99205.55
2019-02-11T10:45:16.262Z,99193.91
2019-02-11T10:47:49.140Z,99184.23
2019-02-11T10:50:18.870Z,99189.36
2019-02-11T10:52:47.805Z,99187.80
2019-02-11T10:55:18.657Z,99182.81
2019-02-11T10:57:47.440Z,99183.92
2019-02-11T11:00:19.310Z,99183.70
2019-02-11T11:02:48.416Z,99178.70
2019-02-11T11:05:17.227Z,99170.51
2019-02-11T11:07:46.162Z,99161.36
2019-02-11T11:10:26.725Z,99155.12
2019-02-11T11:12:55.575Z,99157.30
2019-02-11T11:15:24.501Z,99158.99
2019-02-11T11:17:53.647Z,99148.52
2019-02-11T11:20:22.368Z,99143.66
2019-02-11T11:22:51.131Z,99143.95
2019-02-11T11:25:20.127Z,99148.91
2019-02-11T11:27:48.863Z,99137.27
2019-02-11T11:30:21.294Z,99122.51
2019-02-11T11:32:50.102Z,99117.58
2019-02-11T11:35:19.126Z,99111.27
2019-02-11T11:37:47.849Z,99102.24
2019-02-11T11:40:21.639Z,99102.63
2019-02-11T11:42:50.382Z,99100.08
2019-02-11T11:45:20.513Z,99102.81
2019-02-11T11:47:49.404Z,99097.78
2019-02-11T11:50:18.631Z,99076.81
2019-02-11T11:52:47.471Z,99075.92
2019-02-11T11:55:21.617Z,99068.74
2019-02-11T11:57:53.362Z,99056.72
2019-02-11T12:00:24.837Z,99063.22
2019-02-11T12:03:01.526Z,99065.11
2019-02-11T12:05:24.294Z,99064.55
2019-02-11T12:07:53.060Z,99056.45
2019-02-11T12:10:21.929Z,99056.12
2019-02-11T12:12:50.655Z,99042.90
2019-02-11T12:15:22.352Z,99028.34
2019-02-11T12:17:51.537Z,99021.11
2019-02-11T12:20:21.812Z,99020.17
2019-02-11T12:22:50.555Z,99025.33
2019-02-11T12:25:19.780Z,99016.90
2019-02-11T12:27:48.504Z,99005.38
2019-02-11T12:30:25.500Z,99008.26
2019-02-11T12:32:55.744Z,99003.19
2019-02-11T12:35:24.839Z,98993.72
2019-02-11T12:37:53.931Z,98990.81
2019-02-11T12:40:22.668Z,98986.49
2019-02-11T12:42:53.101Z,98976.76
2019-02-11T12:45:24.834Z,98971.20
2019-02-11T12:47:53.590Z,98975.81
2019-02-11T12:50:22.333Z,98964.66
2019-02-11T12:52:51.961Z,98965.78
2019-02-11T12:55:20.705Z,98966.85
2019-02-11T12:57:49.431Z,98961.02
2019-02-11T13:00:24.803Z,98960.19
2019-02-11T13:02:53.619Z,98947.08
2019-02-11T13:05:32.292Z,98939.90
2019-02-11T13:07:53.066Z,98939.78
2019-02-11T13:10:21.782Z,98935.34
2019-02-11T13:12:50.526Z,98932.36
2019-02-11T13:15:53.096Z,98942.33
2019-02-11T13:17:50.939Z,98949.45
2019-02-11T13:20:20.061Z,98939.47
2019-02-11T13:22:49.005Z,98929.32
2019-02-11T13:25:18.850Z,98941.42
2019-02-11T13:27:47.866Z,98944.91
2019-02-11T13:30:18.522Z,98943.84
2019-02-11T13:32:47.371Z,98950.45
2019-02-11T13:35:16.248Z,98946.78
2019-02-11T13:37:45.570Z,98947.77
2019-02-11T13:40:14.810Z,98942.25
2019-02-11T13:42:43.808Z,98949.92
2019-02-11T13:45:14.721Z,98952.84
2019-02-11T13:47:53.132Z,98948.32
2019-02-11T13:50:16.244Z,98944.59
2019-02-11T13:52:45.111Z,98943.83
2019-02-11T13:55:13.949Z,98943.36
2019-02-11T13:57:42.673Z,98951.78
2019-02-11T14:00:21.427Z,98949.28
2019-02-11T14:02:52.547Z,98954.89
2019-02-11T14:05:21.836Z,98954.62
2019-02-11T14:07:50.623Z,98955.11
2019-02-11T14:10:19.428Z,98959.89
2019-02-11T14:12:48.750Z,98953.88
2019-02-11T14:15:20.289Z,98953.65
2019-02-11T14:17:48.079Z,98951.52
2019-02-11T14:20:25.757Z,98948.47
2019-02-11T14:22:54.469Z,98944.39
2019-02-11T14:25:40.521Z,98947.19
2019-02-11T14:27:53.825Z,98943.94
2019-02-11T14:30:23.068Z,98944.77
2019-02-11T14:32:51.834Z,98939.51
2019-02-11T14:35:21.305Z,98930.75
2019-02-11T14:37:50.178Z,98928.05
2019-02-11T14:40:19.108Z,98922.77
2019-02-11T14:42:47.881Z,98923.91
2019-02-11T14:45:20.429Z,98925.57
2019-02-11T14:47:49.155Z,98922.59
2019-02-11T14:50:18.058Z,98925.57
2019-02-11T14:52:46.739Z,98928.51
2019-02-11T14:55:15.460Z,98928.51
2019-02-11T14:57:44.230Z,98929.34
2019-02-11T15:00:21.564Z,98923.19
2019-02-11T15:02:50.625Z,98918.19
2019-02-11T15:05:19.752Z,98929.00
2019-02-11T15:07:48.602Z,98938.24
2019-02-11T15:10:19.588Z,98936.69
2019-02-11T15:12:48.244Z,98931.95
2019-02-11T15:15:16.978Z,98927.98
2019-02-11T15:17:46.912Z,98929.87
2019-02-11T15:20:16.633Z,98933.47
2019-02-11T15:22:47.025Z,98934.09
2019-02-11T15:25:18.171Z,98933.30
2019-02-11T15:27:46.896Z,98937.84
2019-02-11T15:30:17.521Z,98928.81
2019-02-11T15:32:46.820Z,98929.77
2019-02-11T15:35:15.571Z,98912.83
2019-02-11T15:37:44.376Z,98901.32
2019-02-11T15:40:21.747Z,98904.02
2019-02-11T15:42:50.474Z,98906.29
2019-02-11T15:45:19.196Z,98899.15
2019-02-11T15:47:47.994Z,98895.37
2019-02-11T15:50:18.020Z,98905.91
2019-02-11T15:52:46.840Z,98899.29
2019-02-11T15:55:21.109Z,98894.86
2019-02-11T15:57:49.838Z,98889.13
2019-02-11T16:00:23.293Z,98893.93
2019-02-11T16:02:52.337Z,98898.22
2019-02-11T16:05:21.199Z,98887.89
2019-02-11T16:07:49.932Z,98879.75
2019-02-11T16:10:22.420Z,98877.53
2019-02-11T16:12:51.236Z,98873.94
2019-02-11T16:15:19.950Z,98865.85
2019-02-11T16:17:49.180Z,98872.64
2019-02-11T16:20:17.901Z,98864.00
2019-02-11T16:22:46.630Z,98864.41
2019-02-11T16:25:16.094Z,98867.22
2019-02-11T16:27:44.823Z,98870.28
2019-02-11T16:30:16.493Z,98854.44
2019-02-11T16:32:45.701Z,98850.87
2019-02-11T16:35:16.326Z,98851.18
2019-02-11T16:37:45.058Z,98846.65
2019-02-11T16:40:28.314Z,98856.09
2019-02-11T16:42:57.044Z,98856.17
2019-02-11T16:45:25.765Z,98840.34
2019-02-11T16:47:54.808Z,98841.87
2019-02-11T16:50:23.539Z,98861.14
2019-02-11T16:52:52.268Z,98860.33
2019-02-11T16:55:21.066Z,98861.42
2019-02-11T16:57:49.793Z,98858.67
2019-02-11T17:00:21.755Z,98860.86
2019-02-11T17:02:50.540Z,98851.03
2019-02-11T17:05:19.290Z,98844.09
2019-02-11T17:07:48.142Z,98846.36
2019-02-11T17:10:17.167Z,98843.57
2019-02-11T17:12:45.916Z,98843.49
2019-02-11T17:15:19.036Z,98836.89
2019-02-11T17:17:48.147Z,98845.91
2019-02-11T17:20:17.487Z,98839.22
2019-02-11T17:22:46.223Z,98827.73
2019-02-11T17:25:15.833Z,98817.34
2019-02-11T17:27:44.568Z,98799.84
2019-02-11T17:30:15.906Z,98808.95
2019-02-11T17:32:44.703Z,98817.73
2019-02-11T17:35:13.543Z,98826.77
2019-02-11T17:37:42.292Z,98824.01
2019-02-11T17:40:13.589Z,98832.66
2019-02-11T17:42:42.320Z,98833.84
2019-02-11T17:45:16.574Z,98825.83
2019-02-11T17:47:45.571Z,98825.25
2019-02-11T17:50:14.510Z,98819.51
2019-02-11T17:52:43.281Z,98824.92
2019-02-11T17:55:14.235Z,98830.89
2019-02-11T17:57:42.966Z,98825.19
2019-02-11T18:00:25.357Z,98814.09
2019-02-11T18:02:54.189Z,98811.16
2019-02-11T18:05:22.918Z,98794.74
2019-02-11T18:07:51.813Z,98791.28
2019-02-11T18:10:20.569Z,98795.13
2019-02-11T18:12:49.295Z,98803.16
2019-02-11T18:15:18.114Z,98793.00
2019-02-11T18:17:46.927Z,98790.00
2019-02-11T18:20:15.660Z,98786.51
2019-02-11T18:22:44.539Z,98780.64
2019-02-11T18:25:13.473Z,98784.95
2019-02-11T18:27:42.209Z,98797.13
2019-02-11T18:30:15.941Z,98784.55
2019-02-11T18:32:44.770Z,98781.47
2019-02-11T18:35:18.290Z,98776.92
2019-02-11T18:37:47.096Z,98784.20
2019-02-11T18:40:16.331Z,98783.05
2019-02-11T18:42:45.090Z,98778.20
2019-02-11T18:45:18.627Z,98778.19
2019-02-11T18:47:47.358Z,98776.98
2019-02-11T18:50:16.607Z,98777.29
2019-02-11T18:52:45.479Z,98774.13
2019-02-11T18:55:19.060Z,98777.38
2019-02-11T18:57:47.791Z,98769.80
2019-02-11T19:00:19.921Z,98757.02
2019-02-11T19:02:49.335Z,98756.50
2019-02-11T19:05:18.489Z,98760.63
2019-02-11T19:07:47.400Z,98754.34
2019-02-11T19:10:17.639Z,98752.38
2019-02-11T19:12:46.518Z,98756.55
2019-02-11T19:15:19.080Z,98746.66
2019-02-11T19:17:47.968Z,98749.64
2019-02-11T19:20:17.708Z,98734.44
2019-02-11T19:22:46.995Z,98746.77
2019-02-11T19:25:16.008Z,98761.32
2019-02-11T19:27:44.760Z,98753.80
2019-02-11T19:30:20.937Z,98748.09
2019-02-11T19:32:49.567Z,98747.92
2019-02-11T19:35:18.404Z,98743.84
2019-02-11T19:37:47.185Z,98743.84
2019-02-11T19:40:17.815Z,98738.13
2019-02-11T19:42:46.549Z,98730.95
2019-02-11T19:45:18.219Z,98748.12
2019-02-11T19:47:47.004Z,98745.86
2019-02-11T19:50:17.227Z,98742.69
2019-02-11T19:52:46.006Z,98749.48
2019-02-11T19:55:20.382Z,98741.35
2019-02-11T19:57:49.120Z,98741.09
2019-02-11T20:00:22.112Z,98735.89
2019-02-11T20:02:51.458Z,98735.66
2019-02-11T20:05:20.196Z,98736.77
2019-02-11T20:07:49.088Z,98733.98
2019-02-11T20:10:20.296Z,98729.26
2019-02-11T20:12:49.021Z,98738.13
2019-02-11T20:15:20.146Z,98734.45
2019-02-11T20:17:48.888Z,98743.23
2019-02-11T20:20:19.918Z,98743.23
2019-02-11T20:22:48.799Z,98727.58
2019-02-11T20:25:17.525Z,98719.89
2019-02-11T20:27:46.359Z,98722.42
2019-02-11T20:30:24.414Z,98735.55
2019-02-11T20:32:53.162Z,98743.75
2019-02-11T20:35:21.885Z,98723.61
2019-02-11T20:37:50.679Z,98716.12
2019-02-11T20:40:27.625Z,98688.17
2019-02-11T20:42:56.509Z,98690.87
2019-02-11T20:45:29.657Z,98697.25
2019-02-11T20:47:58.395Z,98687.00
2019-02-11T20:50:27.496Z,98683.31
2019-02-11T20:52:56.253Z,98686.28
2019-02-11T20:55:24.965Z,98697.87
2019-02-11T20:57:56.248Z,98697.10
2019-02-11T21:00:26.291Z,98683.34
2019-02-11T21:02:55.019Z,98672.38
2019-02-11T21:05:24.425Z,98679.08
2019-02-11T21:07:53.158Z,98678.30
2019-02-11T21:10:24.345Z,98672.48
2019-02-11T21:12:53.112Z,98665.93
2019-02-11T21:15:21.857Z,98668.49
2019-02-11T21:17:50.578Z,98669.26
2019-02-11T21:20:37.782Z,98673.38
2019-02-11T21:23:08.238Z,98676.23
2019-02-11T21:25:37.155Z,98681.81
2019-02-11T21:28:06.140Z,98666.54
2019-02-11T21:30:34.884Z,98661.95
2019-02-11T21:33:06.447Z,98664.34
2019-02-11T21:35:35.252Z,98674.07
2019-02-11T21:38:03.995Z,98669.64
2019-02-11T21:40:32.725Z,98660.68
2019-02-11T21:43:02.241Z,98660.20
2019-02-11T21:45:32.431Z,98654.97
2019-02-11T21:48:04.321Z,98644.20
2019-02-11T21:50:33.098Z,98643.30
2019-02-11T21:53:01.872Z,98644.64
2019-02-11T21:55:30.601Z,98642.91
2019-02-11T21:57:59.501Z,98625.51
2019-02-11T22:00:28.226Z,98614.22
2019-02-11T22:03:01.209Z,98606.26
2019-02-11T22:05:29.994Z,98619.96
2019-02-11T22:07:58.720Z,98620.73
2019-02-11T22:10:27.447Z,98607.56
2019-02-11T22:12:57.437Z,98600.16
2019-02-11T22:15:26.124Z,98595.00
2019-02-11T22:17:54.854Z,98597.67
2019-02-11T22:20:24.072Z,98595.02
2019-02-11T22:22:52.805Z,98592.61
2019-02-11T22:25:21.683Z,98577.13
2019-02-11T22:27:50.556Z,98580.86
2019-02-11T22:30:24.217Z,98587.91
2019-02-11T22:32:52.947Z,98580.80
2019-02-11T22:35:22.149Z,98581.16
2019-02-11T22:37:52.058Z,98576.14
2019-02-11T22:40:20.790Z,98572.77
2019-02-11T22:42:49.558Z,98565.90
2019-02-11T22:45:21.155Z,98573.07
2019-02-11T22:47:49.878Z,98585.64
2019-02-11T22:50:18.767Z,98583.33
2019-02-11T22:52:47.489Z,98582.48
2019-02-11T22:55:16.716Z,98586.50
2019-02-11T22:57:45.962Z,98585.80
2019-02-11T23:00:49.215Z,98574.19
2019-02-11T23:03:18.286Z,98577.71
2019-02-11T23:05:47.007Z,98573.93
2019-02-11T23:08:15.745Z,98569.03
2019-02-11T23:10:44.740Z,98565.80
2019-02-11T23:13:13.563Z,98576.75
2019-02-11T23:15:42.290Z,98583.98
2019-02-11T23:18:11.070Z,98584.17
2019-02-11T23:20:39.796Z,98588.95
2019-02-11T23:23:08.523Z,98598.13
2019-02-11T23:25:37.288Z,98593.58
2019-02-11T23:28:06.049Z,98602.52
2019-02-11T23:30:34.771Z,98588.29
2019-02-11T23:33:03.579Z,98588.63
2019-02-11T23:35:32.310Z,98591.20
2019-02-11T23:38:01.037Z,98595.83
2019-02-11T23:40:30.268Z,98604.63
2019-02-11T23:42:59.946Z,98613.23
2019-02-11T23:45:28.808Z,98617.19
2019-02-11T23:47:57.686Z,98620.83
2019-02-11T23:50:26.418Z,98622.08
2019-02-11T23:52:55.136Z,98630.81
2019-02-11T23:55:24.009Z,98635.28
2019-02-11T23:57:52.740Z,98636.97
